< < Back
Terminal Aerodrome Forecast


Current Version              Previous Versions:   1  2  3  4  5  6  7  8  9  

Terminal Aerodrome Forecast

364
FTUS42 KGSP 291400 AAB
TAFCLT
TAF AMD
KCLT 291451Z 2915/3012 06008KT P6SM SCT020 SCT070
      TEMPO 2915/2916 P6SM OVC020
     FM291800 08005KT P6SM FEW250
     FM300000 12003KT P6SM FEW050=

Latest METAR

045
SAUS70 KWBC 291800 RRB
MTRCLT
METAR KCLT 291752Z 01010KT 10SM FEW022 29/21 A3013 RMK AO2 SLP192
T02890206 10289 20233 58004


USA.gov is the U.S. government's official web portal to all federal, state and local government web resources and services.